sensor_id;sensor_type;location;lat;lon;timestamp;temperature;humidity
19258;DHT22;9763;48.780;9.212;2022-12-07T00:00:02;7.30;86.10
19258;DHT22;9763;48.780;9.212;2022-12-07T00:03:26;7.30;86.20
19258;DHT22;9763;48.780;9.212;2022-12-07T00:06:52;7.20;86.00
19258;DHT22;9763;48.780;9.212;2022-12-07T00:10:16;7.20;86.10
19258;DHT22;9763;48.780;9.212;2022-12-07T00:13:39;7.20;86.00
19258;DHT22;9763;48.780;9.212;2022-12-07T00:17:04;7.20;86.20
19258;DHT22;9763;48.780;9.212;2022-12-07T00:20:27;7.20;86.20
19258;DHT22;9763;48.780;9.212;2022-12-07T00:23:53;7.20;86.20
19258;DHT22;9763;48.780;9.212;2022-12-07T00:27:18;7.30;86.50
19258;DHT22;9763;48.780;9.212;2022-12-07T00:30:41;7.30;85.80
19258;DHT22;9763;48.780;9.212;2022-12-07T00:34:05;7.30;86.00
19258;DHT22;9763;48.780;9.212;2022-12-07T00:37:30;7.30;86.00
19258;DHT22;9763;48.780;9.212;2022-12-07T00:40:56;7.30;85.80
19258;DHT22;9763;48.780;9.212;2022-12-07T00:44:20;7.30;86.20
19258;DHT22;9763;48.780;9.212;2022-12-07T00:47:43;7.90;86.60
19258;DHT22;9763;48.780;9.212;2022-12-07T00:51:07;7.30;86.00
19258;DHT22;9763;48.780;9.212;2022-12-07T00:54:32;7.30;85.90
19258;DHT22;9763;48.780;9.212;2022-12-07T00:57:57;7.20;85.60
19258;DHT22;9763;48.780;9.212;2022-12-07T01:01:21;7.20;85.40
19258;DHT22;9763;48.780;9.212;2022-12-07T01:04:46;7.30;85.70
19258;DHT22;9763;48.780;9.212;2022-12-07T01:08:11;7.20;85.50
19258;DHT22;9763;48.780;9.212;2022-12-07T01:11:36;7.20;85.60
19258;DHT22;9763;48.780;9.212;2022-12-07T01:15:01;7.20;85.60
19258;DHT22;9763;48.780;9.212;2022-12-07T01:18:25;7.20;85.50
19258;DHT22;9763;48.780;9.212;2022-12-07T01:21:49;7.70;86.00
19258;DHT22;9763;48.780;9.212;2022-12-07T01:25:13;7.20;85.30
19258;DHT22;9763;48.780;9.212;2022-12-07T01:28:36;7.20;85.20
19258;DHT22;9763;48.780;9.212;2022-12-07T01:32:01;7.20;85.50
19258;DHT22;9763;48.780;9.212;2022-12-07T01:35:25;7.20;85.30
19258;DHT22;9763;48.780;9.212;2022-12-07T01:38:54;7.20;85.30
19258;DHT22;9763;48.780;9.212;2022-12-07T01:42:19;7.20;85.50
19258;DHT22;9763;48.780;9.212;2022-12-07T01:45:43;7.20;85.30
19258;DHT22;9763;48.780;9.212;2022-12-07T01:49:12;7.20;85.00
19258;DHT22;9763;48.780;9.212;2022-12-07T01:52:41;7.40;85.10
19258;DHT22;9763;48.780;9.212;2022-12-07T01:56:09;7.20;84.90
19258;DHT22;9763;48.780;9.212;2022-12-07T01:59:37;7.50;85.10
19258;DHT22;9763;48.780;9.212;2022-12-07T02:03:05;7.20;84.60
19258;DHT22;9763;48.780;9.212;2022-12-07T02:06:35;7.20;84.90
19258;DHT22;9763;48.780;9.212;2022-12-07T02:10:12;7.20;84.70
19258;DHT22;9763;48.780;9.212;2022-12-07T02:17:10;7.20;83.50
19258;DHT22;9763;48.780;9.212;2022-12-07T02:20:51;7.20;83.40
19258;DHT22;9763;48.780;9.212;2022-12-07T02:28:21;7.20;83.50
19258;DHT22;9763;48.780;9.212;2022-12-07T02:31:59;7.20;83.10
19258;DHT22;9763;48.780;9.212;2022-12-07T02:35:32;7.10;83.80
19258;DHT22;9763;48.780;9.212;2022-12-07T02:42:38;7.10;82.60
19258;DHT22;9763;48.780;9.212;2022-12-07T02:46:08;7.10;84.10
19258;DHT22;9763;48.780;9.212;2022-12-07T02:49:38;7.00;83.90
19258;DHT22;9763;48.780;9.212;2022-12-07T02:53:03;7.10;82.80
19258;DHT22;9763;48.780;9.212;2022-12-07T02:56:34;7.20;84.20
19258;DHT22;9763;48.780;9.212;2022-12-07T03:00:07;7.00;84.30
19258;DHT22;9763;48.780;9.212;2022-12-07T03:03:33;6.90;84.30
19258;DHT22;9763;48.780;9.212;2022-12-07T03:07:06;6.90;83.80
19258;DHT22;9763;48.780;9.212;2022-12-07T03:24:40;7.00;83.20
19258;DHT22;9763;48.780;9.212;2022-12-07T03:28:07;7.00;83.30
19258;DHT22;9763;48.780;9.212;2022-12-07T03:31:34;7.00;83.20
19258;DHT22;9763;48.780;9.212;2022-12-07T03:35:05;7.00;83.10
19258;DHT22;9763;48.780;9.212;2022-12-07T04:02:56;7.00;83.00
19258;DHT22;9763;48.780;9.212;2022-12-07T04:06:21;7.10;83.10
19258;DHT22;9763;48.780;9.212;2022-12-07T04:33:44;6.70;82.30
19258;DHT22;9763;48.780;9.212;2022-12-07T04:37:07;6.60;82.50
19258;DHT22;9763;48.780;9.212;2022-12-07T04:40:31;6.60;81.90
19258;DHT22;9763;48.780;9.212;2022-12-07T04:43:55;6.60;80.60
19258;DHT22;9763;48.780;9.212;2022-12-07T04:50:48;6.50;82.20
19258;DHT22;9763;48.780;9.212;2022-12-07T05:04:25;6.50;82.30
19258;DHT22;9763;48.780;9.212;2022-12-07T05:18:24;6.80;81.90
19258;DHT22;9763;48.780;9.212;2022-12-07T05:21:47;6.70;82.00
19258;DHT22;9763;48.780;9.212;2022-12-07T05:25:12;6.70;81.90
19258;DHT22;9763;48.780;9.212;2022-12-07T05:28:36;6.50;82.50
19258;DHT22;9763;48.780;9.212;2022-12-07T05:35:24;6.50;82.00
19258;DHT22;9763;48.780;9.212;2022-12-07T05:38:48;6.40;83.30
19258;DHT22;9763;48.780;9.212;2022-12-07T05:42:13;6.50;81.00
19258;DHT22;9763;48.780;9.212;2022-12-07T05:49:01;6.50;80.30
19258;DHT22;9763;48.780;9.212;2022-12-07T06:13:01;6.40;80.30
19258;DHT22;9763;48.780;9.212;2022-12-07T06:16:26;6.30;81.00
19258;DHT22;9763;48.780;9.212;2022-12-07T06:19:49;6.30;81.00
19258;DHT22;9763;48.780;9.212;2022-12-07T06:30:02;6.40;81.00
19258;DHT22;9763;48.780;9.212;2022-12-07T06:36:54;6.40;80.40
19258;DHT22;9763;48.780;9.212;2022-12-07T06:47:05;6.50;81.30
19258;DHT22;9763;48.780;9.212;2022-12-07T06:57:41;6.40;81.10
19258;DHT22;9763;48.780;9.212;2022-12-07T07:01:09;6.40;81.40
19258;DHT22;9763;48.780;9.212;2022-12-07T07:08:01;6.30;81.80
19258;DHT22;9763;48.780;9.212;2022-12-07T07:11:43;6.30;81.90
19258;DHT22;9763;48.780;9.212;2022-12-07T07:15:07;6.30;82.00
19258;DHT22;9763;48.780;9.212;2022-12-07T07:21:55;6.40;81.70
19258;DHT22;9763;48.780;9.212;2022-12-07T07:59:26;6.70;81.40
19258;DHT22;9763;48.780;9.212;2022-12-07T08:20:01;6.90;81.70
19258;DHT22;9763;48.780;9.212;2022-12-07T08:40:37;7.20;82.20
19258;DHT22;9763;48.780;9.212;2022-12-07T08:50:51;7.40;82.80
19258;DHT22;9763;48.780;9.212;2022-12-07T08:54:17;7.30;83.80
19258;DHT22;9763;48.780;9.212;2022-12-07T08:57:42;7.70;84.50
19258;DHT22;9763;48.780;9.212;2022-12-07T09:01:06;7.40;84.20
19258;DHT22;9763;48.780;9.212;2022-12-07T09:04:29;7.50;85.00
19258;DHT22;9763;48.780;9.212;2022-12-07T09:07:58;7.50;84.30
19258;DHT22;9763;48.780;9.212;2022-12-07T09:11:24;7.60;84.10
19258;DHT22;9763;48.780;9.212;2022-12-07T09:14:50;7.60;84.20
19258;DHT22;9763;48.780;9.212;2022-12-07T09:18:13;7.70;84.60
19258;DHT22;9763;48.780;9.212;2022-12-07T09:21:37;7.80;84.50
19258;DHT22;9763;48.780;9.212;2022-12-07T09:25:03;7.90;84.10
19258;DHT22;9763;48.780;9.212;2022-12-07T09:28:28;7.90;84.60
19258;DHT22;9763;48.780;9.212;2022-12-07T09:31:51;7.90;84.90
19258;DHT22;9763;48.780;9.212;2022-12-07T09:35:16;8.10;84.70
19258;DHT22;9763;48.780;9.212;2022-12-07T09:38:39;8.20;84.90
19258;DHT22;9763;48.780;9.212;2022-12-07T09:42:05;8.30;84.50
19258;DHT22;9763;48.780;9.212;2022-12-07T09:45:33;8.30;85.10
19258;DHT22;9763;48.780;9.212;2022-12-07T09:52:27;8.60;85.60
19258;DHT22;9763;48.780;9.212;2022-12-07T09:56:00;8.60;85.00
19258;DHT22;9763;48.780;9.212;2022-12-07T09:59:26;8.70;84.60
19258;DHT22;9763;48.780;9.212;2022-12-07T10:02:58;8.70;84.70
19258;DHT22;9763;48.780;9.212;2022-12-07T10:06:23;8.80;84.80
19258;DHT22;9763;48.780;9.212;2022-12-07T10:09:47;8.80;85.50
19258;DHT22;9763;48.780;9.212;2022-12-07T10:13:12;8.80;84.50
19258;DHT22;9763;48.780;9.212;2022-12-07T10:16:41;8.90;84.30
19258;DHT22;9763;48.780;9.212;2022-12-07T10:20:19;8.90;83.90
19258;DHT22;9763;48.780;9.212;2022-12-07T10:24:00;8.80;83.90
19258;DHT22;9763;48.780;9.212;2022-12-07T10:27:29;8.80;83.20
19258;DHT22;9763;48.780;9.212;2022-12-07T10:30:57;8.80;83.10
19258;DHT22;9763;48.780;9.212;2022-12-07T10:34:27;8.70;83.10
19258;DHT22;9763;48.780;9.212;2022-12-07T10:37:59;8.70;83.40
19258;DHT22;9763;48.780;9.212;2022-12-07T10:48:18;8.80;83.70
19258;DHT22;9763;48.780;9.212;2022-12-07T10:51:56;8.70;83.40
19258;DHT22;9763;48.780;9.212;2022-12-07T10:55:36;8.70;83.40
19258;DHT22;9763;48.780;9.212;2022-12-07T10:59:27;8.70;83.90
19258;DHT22;9763;48.780;9.212;2022-12-07T11:07:14;8.60;83.30
19258;DHT22;9763;48.780;9.212;2022-12-07T11:10:50;8.50;83.10
19258;DHT22;9763;48.780;9.212;2022-12-07T11:14:25;8.50;83.00
19258;DHT22;9763;48.780;9.212;2022-12-07T11:18:04;8.50;82.10
19258;DHT22;9763;48.780;9.212;2022-12-07T11:21:37;8.50;83.60
19258;DHT22;9763;48.780;9.212;2022-12-07T11:25:20;8.40;82.70
19258;DHT22;9763;48.780;9.212;2022-12-07T11:29:06;8.40;83.70
19258;DHT22;9763;48.780;9.212;2022-12-07T11:32:59;8.40;83.30
19258;DHT22;9763;48.780;9.212;2022-12-07T11:36:38;8.40;83.60
19258;DHT22;9763;48.780;9.212;2022-12-07T11:40:11;8.40;83.00
19258;DHT22;9763;48.780;9.212;2022-12-07T11:43:53;8.40;84.00
19258;DHT22;9763;48.780;9.212;2022-12-07T11:47:27;8.40;83.00
19258;DHT22;9763;48.780;9.212;2022-12-07T11:50:59;8.40;83.20
19258;DHT22;9763;48.780;9.212;2022-12-07T11:54:28;8.40;83.20
19258;DHT22;9763;48.780;9.212;2022-12-07T11:58:00;8.40;83.40
19258;DHT22;9763;48.780;9.212;2022-12-07T12:01:50;8.40;82.60
19258;DHT22;9763;48.780;9.212;2022-12-07T12:05:18;8.30;83.00
19258;DHT22;9763;48.780;9.212;2022-12-07T12:08:47;8.30;82.70
19258;DHT22;9763;48.780;9.212;2022-12-07T12:12:48;8.20;82.90
19258;DHT22;9763;48.780;9.212;2022-12-07T12:17:21;8.10;82.50
19258;DHT22;9763;48.780;9.212;2022-12-07T12:21:05;8.10;83.00
19258;DHT22;9763;48.780;9.212;2022-12-07T12:24:33;8.00;82.90
19258;DHT22;9763;48.780;9.212;2022-12-07T12:27:59;8.00;83.20
19258;DHT22;9763;48.780;9.212;2022-12-07T12:31:37;8.00;82.60
19258;DHT22;9763;48.780;9.212;2022-12-07T12:35:26;8.00;83.40
19258;DHT22;9763;48.780;9.212;2022-12-07T12:39:13;8.00;82.70
19258;DHT22;9763;48.780;9.212;2022-12-07T12:42:45;8.00;83.40
19258;DHT22;9763;48.780;9.212;2022-12-07T12:46:44;8.00;83.50
19258;DHT22;9763;48.780;9.212;2022-12-07T12:50:20;8.00;83.80
19258;DHT22;9763;48.780;9.212;2022-12-07T12:53:51;8.00;83.80
19258;DHT22;9763;48.780;9.212;2022-12-07T12:57:19;8.00;83.70
19258;DHT22;9763;48.780;9.212;2022-12-07T13:05:18;8.00;82.80
19258;DHT22;9763;48.780;9.212;2022-12-07T13:08:43;8.00;83.20
19258;DHT22;9763;48.780;9.212;2022-12-07T13:12:13;8.00;83.50
19258;DHT22;9763;48.780;9.212;2022-12-07T13:15:40;8.00;83.60
19258;DHT22;9763;48.780;9.212;2022-12-07T13:23:33;8.00;83.60
19258;DHT22;9763;48.780;9.212;2022-12-07T13:30:24;8.00;83.40
19258;DHT22;9763;48.780;9.212;2022-12-07T13:37:16;8.10;82.50
19258;DHT22;9763;48.780;9.212;2022-12-07T13:41:01;8.00;82.70
19258;DHT22;9763;48.780;9.212;2022-12-07T13:44:40;8.00;82.30
19258;DHT22;9763;48.780;9.212;2022-12-07T13:48:05;8.00;82.90
19258;DHT22;9763;48.780;9.212;2022-12-07T13:51:36;8.00;82.80
19258;DHT22;9763;48.780;9.212;2022-12-07T13:55:05;8.00;83.00
19258;DHT22;9763;48.780;9.212;2022-12-07T14:05:44;8.00;83.10
19258;DHT22;9763;48.780;9.212;2022-12-07T14:09:14;8.00;83.00
19258;DHT22;9763;48.780;9.212;2022-12-07T14:12:42;8.00;83.00
19258;DHT22;9763;48.780;9.212;2022-12-07T14:16:23;8.00;82.70
19258;DHT22;9763;48.780;9.212;2022-12-07T14:19:52;8.00;82.50
19258;DHT22;9763;48.780;9.212;2022-12-07T14:23:24;8.00;82.80
19258;DHT22;9763;48.780;9.212;2022-12-07T14:26:49;7.90;82.80
19258;DHT22;9763;48.780;9.212;2022-12-07T14:30:15;7.90;82.60
19258;DHT22;9763;48.780;9.212;2022-12-07T14:33:42;7.90;82.50
19258;DHT22;9763;48.780;9.212;2022-12-07T14:37:08;7.90;82.50
19258;DHT22;9763;48.780;9.212;2022-12-07T14:43:57;7.90;82.30
19258;DHT22;9763;48.780;9.212;2022-12-07T14:51:25;7.90;82.10
19258;DHT22;9763;48.780;9.212;2022-12-07T14:55:14;7.90;82.10
19258;DHT22;9763;48.780;9.212;2022-12-07T14:58:43;7.80;82.20
19258;DHT22;9763;48.780;9.212;2022-12-07T15:02:11;7.80;82.50
19258;DHT22;9763;48.780;9.212;2022-12-07T15:05:36;7.80;82.10
19258;DHT22;9763;48.780;9.212;2022-12-07T15:09:02;7.80;82.30
19258;DHT22;9763;48.780;9.212;2022-12-07T15:15:52;7.80;82.70
19258;DHT22;9763;48.780;9.212;2022-12-07T15:19:17;7.80;82.40
19258;DHT22;9763;48.780;9.212;2022-12-07T15:22:50;7.70;82.10
19258;DHT22;9763;48.780;9.212;2022-12-07T15:26:15;7.80;82.40
19258;DHT22;9763;48.780;9.212;2022-12-07T15:29:38;7.80;81.90
19258;DHT22;9763;48.780;9.212;2022-12-07T15:33:02;7.70;82.30
19258;DHT22;9763;48.780;9.212;2022-12-07T15:36:27;7.70;82.60
19258;DHT22;9763;48.780;9.212;2022-12-07T15:43:17;7.70;82.30
19258;DHT22;9763;48.780;9.212;2022-12-07T15:46:58;7.60;81.70
19258;DHT22;9763;48.780;9.212;2022-12-07T16:00:35;7.50;81.70
19258;DHT22;9763;48.780;9.212;2022-12-07T16:17:35;7.30;81.60
19258;DHT22;9763;48.780;9.212;2022-12-07T16:34:41;7.30;80.90
19258;DHT22;9763;48.780;9.212;2022-12-07T16:41:28;7.20;81.30
19258;DHT22;9763;48.780;9.212;2022-12-07T16:48:17;7.10;81.50
19258;DHT22;9763;48.780;9.212;2022-12-07T16:51:42;7.10;81.40
19258;DHT22;9763;48.780;9.212;2022-12-07T16:55:06;7.10;81.30
19258;DHT22;9763;48.780;9.212;2022-12-07T16:58:30;7.00;80.70
19258;DHT22;9763;48.780;9.212;2022-12-07T17:05:18;6.90;80.40
19258;DHT22;9763;48.780;9.212;2022-12-07T17:12:07;6.70;80.10
19258;DHT22;9763;48.780;9.212;2022-12-07T17:15:31;6.70;80.10
19258;DHT22;9763;48.780;9.212;2022-12-07T17:29:10;6.50;80.30
19258;DHT22;9763;48.780;9.212;2022-12-07T17:35:59;6.50;80.50
19258;DHT22;9763;48.780;9.212;2022-12-07T17:42:48;6.60;80.40
19258;DHT22;9763;48.780;9.212;2022-12-07T17:46:12;6.60;81.10
19258;DHT22;9763;48.780;9.212;2022-12-07T17:49:36;6.60;81.20
19258;DHT22;9763;48.780;9.212;2022-12-07T17:52:59;6.60;81.40
19258;DHT22;9763;48.780;9.212;2022-12-07T18:03:21;6.70;81.50
19258;DHT22;9763;48.780;9.212;2022-12-07T18:06:45;6.70;81.50
19258;DHT22;9763;48.780;9.212;2022-12-07T18:10:13;10.20;82.50
19258;DHT22;9763;48.780;9.212;2022-12-07T18:13:37;6.70;81.30
19258;DHT22;9763;48.780;9.212;2022-12-07T18:17:02;6.70;81.40
19258;DHT22;9763;48.780;9.212;2022-12-07T18:20:26;6.70;81.40
19258;DHT22;9763;48.780;9.212;2022-12-07T18:23:51;6.70;81.50
19258;DHT22;9763;48.780;9.212;2022-12-07T18:34:25;6.90;80.80
19258;DHT22;9763;48.780;9.212;2022-12-07T18:48:03;6.80;81.40
19258;DHT22;9763;48.780;9.212;2022-12-07T18:51:29;6.70;81.30
19258;DHT22;9763;48.780;9.212;2022-12-07T19:05:07;6.90;81.80
19258;DHT22;9763;48.780;9.212;2022-12-07T19:08:32;6.90;81.80
19258;DHT22;9763;48.780;9.212;2022-12-07T19:11:55;6.90;81.50
19258;DHT22;9763;48.780;9.212;2022-12-07T19:15:24;6.90;81.70
19258;DHT22;9763;48.780;9.212;2022-12-07T19:22:15;6.90;81.60
19258;DHT22;9763;48.780;9.212;2022-12-07T19:25:41;6.90;81.50
19258;DHT22;9763;48.780;9.212;2022-12-07T19:39:16;6.90;81.60
19258;DHT22;9763;48.780;9.212;2022-12-07T19:42:41;6.90;81.50
19258;DHT22;9763;48.780;9.212;2022-12-07T19:46:05;6.90;81.50
19258;DHT22;9763;48.780;9.212;2022-12-07T19:49:31;7.00;81.50
19258;DHT22;9763;48.780;9.212;2022-12-07T19:52:56;7.00;81.60
19258;DHT22;9763;48.780;9.212;2022-12-07T19:59:46;7.00;81.40
19258;DHT22;9763;48.780;9.212;2022-12-07T20:09:57;7.00;81.30
19258;DHT22;9763;48.780;9.212;2022-12-07T20:16:51;7.00;81.40
19258;DHT22;9763;48.780;9.212;2022-12-07T20:20:15;7.00;81.30
19258;DHT22;9763;48.780;9.212;2022-12-07T20:44:11;7.10;80.60
19258;DHT22;9763;48.780;9.212;2022-12-07T20:57:53;6.90;80.80
19258;DHT22;9763;48.780;9.212;2022-12-07T21:01:17;6.90;80.90
19258;DHT22;9763;48.780;9.212;2022-12-07T21:08:06;6.90;80.70
19258;DHT22;9763;48.780;9.212;2022-12-07T21:25:08;7.00;80.30
19258;DHT22;9763;48.780;9.212;2022-12-07T21:28:32;6.90;80.70
19258;DHT22;9763;48.780;9.212;2022-12-07T21:31:55;6.90;79.80
19258;DHT22;9763;48.780;9.212;2022-12-07T21:35:19;7.10;81.60
19258;DHT22;9763;48.780;9.212;2022-12-07T21:38:43;6.80;81.40
19258;DHT22;9763;48.780;9.212;2022-12-07T21:42:08;7.30;82.00
19258;DHT22;9763;48.780;9.212;2022-12-07T21:45:31;6.90;80.80
19258;DHT22;9763;48.780;9.212;2022-12-07T21:48:56;6.90;80.80
19258;DHT22;9763;48.780;9.212;2022-12-07T21:52:22;6.90;80.60
19258;DHT22;9763;48.780;9.212;2022-12-07T21:55:45;6.80;80.50
19258;DHT22;9763;48.780;9.212;2022-12-07T21:59:12;6.80;80.40
19258;DHT22;9763;48.780;9.212;2022-12-07T22:02:38;6.80;80.40
19258;DHT22;9763;48.780;9.212;2022-12-07T22:09:26;6.80;79.60
19258;DHT22;9763;48.780;9.212;2022-12-07T22:16:17;6.70;79.10
19258;DHT22;9763;48.780;9.212;2022-12-07T22:19:41;6.60;79.00
19258;DHT22;9763;48.780;9.212;2022-12-07T22:33:18;6.40;78.40
19258;DHT22;9763;48.780;9.212;2022-12-07T22:40:06;6.20;79.10
19258;DHT22;9763;48.780;9.212;2022-12-07T22:43:30;6.20;79.10
19258;DHT22;9763;48.780;9.212;2022-12-07T22:46:54;6.20;79.20
19258;DHT22;9763;48.780;9.212;2022-12-07T22:50:19;6.10;79.00
19258;DHT22;9763;48.780;9.212;2022-12-07T22:57:06;6.00;79.20
19258;DHT22;9763;48.780;9.212;2022-12-07T23:03:54;6.00;79.20
19258;DHT22;9763;48.780;9.212;2022-12-07T23:07:19;5.90;79.10
19258;DHT22;9763;48.780;9.212;2022-12-07T23:10:43;5.90;78.90
19258;DHT22;9763;48.780;9.212;2022-12-07T23:14:11;5.90;78.70
19258;DHT22;9763;48.780;9.212;2022-12-07T23:17:35;5.80;78.30
19258;DHT22;9763;48.780;9.212;2022-12-07T23:24:25;5.70;77.90
19258;DHT22;9763;48.780;9.212;2022-12-07T23:27:48;5.60;77.60
19258;DHT22;9763;48.780;9.212;2022-12-07T23:31:13;5.60;77.80
19258;DHT22;9763;48.780;9.212;2022-12-07T23:34:39;5.60;77.70
19258;DHT22;9763;48.780;9.212;2022-12-07T23:38:02;5.50;78.70
19258;DHT22;9763;48.780;9.212;2022-12-07T23:41:28;5.50;78.80
19258;DHT22;9763;48.780;9.212;2022-12-07T23:44:53;5.50;79.50
19258;DHT22;9763;48.780;9.212;2022-12-07T23:48:16;5.50;79.10
19258;DHT22;9763;48.780;9.212;2022-12-07T23:51:40;5.50;80.00
19258;DHT22;9763;48.780;9.212;2022-12-07T23:55:04;5.50;80.30
19258;DHT22;9763;48.780;9.212;2022-12-07T23:58:30;5.50;80.70
